USA602 KSFO-KPVU
Flight info
| Callsign | USA602 |
|---|---|
| Flight time | N/A |
| Altitude | 35000 |
| Route | TRUKN2 TIPRE Q126 INSLO DTA FFU |
| Aircraft | A321/M-SDE3FGHIRWY/LB1 |
Departure
| Time | 2026-05-04 18:54 |
|---|---|
| Airport | San Francisco International Airport (KSFO) |
Arrival
| Time | N/A |
|---|---|
| Airport | Provo Municipal Airport (KPVU) |
| Time | Latitude | Longitude | Altitude | Speed | Heading |
|---|---|---|---|---|---|
| 2026-05-04 18:20 | 37.61333 | -122.38371 | 16 ft | 0 kts | 263° |
| 2026-05-04 18:39 | 37.61333 | -122.38367 | 16 ft | 4 kts | 253° |
| 2026-05-04 18:39 | 37.61329 | -122.38364 | 18 ft | 4 kts | 188° |
| 2026-05-04 18:40 | 37.61353 | -122.38354 | 15 ft | 4 kts | 216° |
| 2026-05-04 18:40 | 37.61375 | -122.38335 | 17 ft | 4 kts | 200° |
| 2026-05-04 18:40 | 37.61390 | -122.38330 | 15 ft | 3 kts | 123° |
| 2026-05-04 18:40 | 37.61393 | -122.38338 | 15 ft | 0 kts | 118° |
| 2026-05-04 18:46 | 37.61393 | -122.38337 | 15 ft | 1 kts | 118° |
| 2026-05-04 18:46 | 37.61365 | -122.38270 | 14 ft | 14 kts | 118° |
| 2026-05-04 18:46 | 37.61321 | -122.38215 | 16 ft | 13 kts | 162° |
| 2026-05-04 18:46 | 37.61244 | -122.38240 | 17 ft | 11 kts | 207° |
| 2026-05-04 18:47 | 37.61183 | -122.38281 | 20 ft | 10 kts | 208° |
| 2026-05-04 18:47 | 37.61102 | -122.38292 | 18 ft | 13 kts | 137° |
| 2026-05-04 18:47 | 37.61120 | -122.38236 | 20 ft | 9 kts | 34° |
| 2026-05-04 18:47 | 37.61212 | -122.38167 | 16 ft | 18 kts | 30° |
| 2026-05-04 18:48 | 37.61321 | -122.38095 | 15 ft | 17 kts | 26° |
| 2026-05-04 18:48 | 37.61362 | -122.37984 | 17 ft | 15 kts | 107° |
| 2026-05-04 18:48 | 37.61318 | -122.37868 | 17 ft | 14 kts | 116° |
| 2026-05-04 18:48 | 37.61274 | -122.37764 | 20 ft | 15 kts | 118° |
| 2026-05-04 18:49 | 37.61229 | -122.37629 | 18 ft | 17 kts | 93° |
| 2026-05-04 18:49 | 37.61270 | -122.37501 | 20 ft | 15 kts | 46° |
| 2026-05-04 18:49 | 37.61350 | -122.37434 | 24 ft | 13 kts | 30° |
| 2026-05-04 18:49 | 37.61426 | -122.37379 | 21 ft | 12 kts | 29° |
| 2026-05-04 18:50 | 37.61503 | -122.37326 | 23 ft | 14 kts | 36° |
| 2026-05-04 18:50 | 37.61556 | -122.37216 | 23 ft | 16 kts | 78° |
| 2026-05-04 18:50 | 37.61535 | -122.37071 | 25 ft | 17 kts | 115° |
| 2026-05-04 18:50 | 37.61473 | -122.36943 | 22 ft | 17 kts | 126° |
| 2026-05-04 18:51 | 37.61391 | -122.36818 | 21 ft | 19 kts | 130° |
| 2026-05-04 18:51 | 37.61321 | -122.36672 | 18 ft | 20 kts | 117° |
| 2026-05-04 18:51 | 37.61253 | -122.36510 | 16 ft | 21 kts | 118° |
| 2026-05-04 18:51 | 37.61184 | -122.36349 | 18 ft | 20 kts | 118° |
| 2026-05-04 18:52 | 37.61119 | -122.36194 | 18 ft | 20 kts | 117° |
| 2026-05-04 18:52 | 37.61142 | -122.36077 | 18 ft | 15 kts | 32° |
| 2026-05-04 18:52 | 37.61229 | -122.36030 | 16 ft | 12 kts | 358° |
| 2026-05-04 18:52 | 37.61281 | -122.36103 | 17 ft | 0 kts | 296° |
| 2026-05-04 18:53 | 37.61281 | -122.36104 | 15 ft | 0 kts | 296° |
| 2026-05-04 18:53 | 37.61290 | -122.36127 | 15 ft | 12 kts | 296° |
| 2026-05-04 18:53 | 37.61479 | -122.36582 | 18 ft | 108 kts | 298° |
| 2026-05-04 18:53 | 37.61959 | -122.37724 | 96 ft | 176 kts | 297° |
| 2026-05-04 18:54 | 37.62567 | -122.39017 | 1179 ft | 172 kts | 306° |
| 2026-05-04 18:54 | 37.63655 | -122.39725 | 2113 ft | 191 kts | 353° |
| 2026-05-04 18:54 | 37.64935 | -122.39214 | 2559 ft | 205 kts | 39° |
| 2026-05-04 18:54 | 37.65814 | -122.37682 | 2755 ft | 229 kts | 63° |
| 2026-05-04 18:55 | 37.66501 | -122.35733 | 3060 ft | 254 kts | 68° |
| 2026-05-04 18:55 | 37.67887 | -122.31495 | 4594 ft | 268 kts | 66° |
| 2026-05-04 18:55 | 37.68659 | -122.29328 | 5434 ft | 272 kts | 65° |
| 2026-05-04 18:56 | 37.69482 | -122.27147 | 6231 ft | 277 kts | 64° |
| 2026-05-04 18:56 | 37.70347 | -122.24938 | 7023 ft | 282 kts | 63° |
| 2026-05-04 18:56 | 37.71239 | -122.22714 | 7826 ft | 286 kts | 63° |
| 2026-05-04 18:56 | 37.72141 | -122.20491 | 8609 ft | 289 kts | 62° |
| 2026-05-04 18:57 | 37.73086 | -122.18227 | 9365 ft | 293 kts | 62° |
| 2026-05-04 18:57 | 37.74053 | -122.15946 | 10141 ft | 295 kts | 62° |
| 2026-05-04 18:57 | 37.75057 | -122.13590 | 10486 ft | 315 kts | 62° |
| 2026-05-04 18:57 | 37.76134 | -122.11060 | 10645 ft | 338 kts | 63° |
| 2026-05-04 18:58 | 37.77261 | -122.08390 | 10783 ft | 359 kts | 63° |
| 2026-05-04 18:58 | 37.78450 | -122.05559 | 11225 ft | 368 kts | 63° |
| 2026-05-04 18:58 | 37.79658 | -122.02687 | 11920 ft | 369 kts | 63° |
| 2026-05-04 18:58 | 37.80860 | -121.99823 | 12664 ft | 369 kts | 63° |
| 2026-05-04 18:59 | 37.82064 | -121.96951 | 13349 ft | 370 kts | 63° |
| 2026-05-04 18:59 | 37.83270 | -121.94066 | 13959 ft | 372 kts | 63° |
| 2026-05-04 18:59 | 37.84486 | -121.91156 | 14529 ft | 375 kts | 63° |
| 2026-05-04 18:59 | 37.85712 | -121.88218 | 15080 ft | 378 kts | 63° |
| 2026-05-04 19:00 | 37.86941 | -121.85272 | 15594 ft | 380 kts | 63° |
| 2026-05-04 19:00 | 37.88167 | -121.82329 | 16080 ft | 383 kts | 63° |
| 2026-05-04 19:00 | 37.89416 | -121.79333 | 16553 ft | 386 kts | 63° |
| 2026-05-04 19:00 | 37.90676 | -121.76311 | 17000 ft | 389 kts | 63° |
| 2026-05-04 19:01 | 37.91943 | -121.73266 | 17451 ft | 391 kts | 63° |
| 2026-05-04 19:01 | 37.93212 | -121.70205 | 17888 ft | 393 kts | 63° |
| 2026-05-04 19:01 | 37.94487 | -121.67128 | 18316 ft | 396 kts | 63° |
| 2026-05-04 19:01 | 37.95771 | -121.64037 | 18747 ft | 398 kts | 62° |
| 2026-05-04 19:02 | 37.97049 | -121.60958 | 19182 ft | 400 kts | 62° |
| 2026-05-04 19:02 | 37.98348 | -121.57822 | 19643 ft | 401 kts | 63° |
| 2026-05-04 19:02 | 37.99650 | -121.54668 | 20100 ft | 403 kts | 62° |
| 2026-05-04 19:02 | 38.00956 | -121.51506 | 20585 ft | 404 kts | 62° |
| 2026-05-04 19:03 | 38.02251 | -121.48373 | 21095 ft | 403 kts | 62° |
| 2026-05-04 19:03 | 38.03552 | -121.45218 | 21571 ft | 404 kts | 62° |
| 2026-05-04 19:03 | 38.04855 | -121.42048 | 22026 ft | 405 kts | 62° |
| 2026-05-04 19:03 | 38.06160 | -121.38873 | 22457 ft | 407 kts | 62° |
| 2026-05-04 19:04 | 38.07455 | -121.35719 | 22862 ft | 408 kts | 62° |
| 2026-05-04 19:04 | 38.08773 | -121.32508 | 23264 ft | 410 kts | 62° |
| 2026-05-04 19:04 | 38.10098 | -121.29277 | 23664 ft | 412 kts | 62° |
| 2026-05-04 19:04 | 38.11421 | -121.26045 | 24044 ft | 413 kts | 62° |
| 2026-05-04 19:05 | 38.12752 | -121.22792 | 24410 ft | 416 kts | 62° |
| 2026-05-04 19:05 | 38.14078 | -121.19553 | 24726 ft | 418 kts | 62° |
| 2026-05-04 19:05 | 38.15430 | -121.16253 | 25026 ft | 422 kts | 62° |
| 2026-05-04 19:05 | 38.16790 | -121.12926 | 25316 ft | 426 kts | 62° |
| 2026-05-04 19:06 | 38.18158 | -121.09573 | 25587 ft | 429 kts | 63° |
| 2026-05-04 19:06 | 38.19527 | -121.06183 | 25866 ft | 432 kts | 64° |
| 2026-05-04 19:06 | 38.20612 | -121.02613 | 26100 ft | 436 kts | 73° |
| 2026-05-04 19:06 | 38.21261 | -120.98823 | 26340 ft | 440 kts | 79° |
| 2026-05-04 19:07 | 38.21798 | -120.94974 | 26562 ft | 444 kts | 79° |
| 2026-05-04 19:07 | 38.22343 | -120.91135 | 26785 ft | 447 kts | 79° |
| 2026-05-04 19:07 | 38.22904 | -120.87212 | 26988 ft | 450 kts | 79° |
| 2026-05-04 19:07 | 38.23470 | -120.83275 | 27175 ft | 454 kts | 79° |
| 2026-05-04 19:08 | 38.24040 | -120.79308 | 27357 ft | 457 kts | 79° |
| 2026-05-04 19:08 | 38.24607 | -120.75314 | 27529 ft | 460 kts | 80° |
| 2026-05-04 19:08 | 38.25178 | -120.71283 | 27693 ft | 464 kts | 80° |
| 2026-05-04 19:08 | 38.25740 | -120.67289 | 27885 ft | 465 kts | 80° |
| 2026-05-04 19:09 | 38.26306 | -120.63221 | 28107 ft | 466 kts | 81° |
| 2026-05-04 19:09 | 38.26870 | -120.59149 | 28307 ft | 468 kts | 81° |
| 2026-05-04 19:09 | 38.27432 | -120.55067 | 28494 ft | 469 kts | 81° |
| 2026-05-04 19:09 | 38.28000 | -120.50953 | 28649 ft | 472 kts | 81° |
| 2026-05-04 19:10 | 38.28575 | -120.46817 | 28806 ft | 475 kts | 81° |
| 2026-05-04 19:10 | 38.29146 | -120.42717 | 28987 ft | 477 kts | 81° |
| 2026-05-04 19:10 | 38.29728 | -120.38531 | 29186 ft | 480 kts | 81° |
| 2026-05-04 19:10 | 38.30307 | -120.34340 | 29365 ft | 482 kts | 82° |
| 2026-05-04 19:11 | 38.30882 | -120.30122 | 29542 ft | 484 kts | 82° |
| 2026-05-04 19:11 | 38.31454 | -120.25875 | 29708 ft | 486 kts | 82° |
| 2026-05-04 19:11 | 38.32025 | -120.21626 | 29873 ft | 488 kts | 82° |
| 2026-05-04 19:11 | 38.32602 | -120.17358 | 30038 ft | 490 kts | 82° |
| 2026-05-04 19:12 | 38.33185 | -120.13069 | 30229 ft | 491 kts | 82° |
| 2026-05-04 19:12 | 38.34345 | -120.04514 | 30653 ft | 493 kts | 83° |
| 2026-05-04 19:12 | 38.34931 | -120.00182 | 30847 ft | 495 kts | 83° |
| 2026-05-04 19:13 | 38.35516 | -119.95849 | 31061 ft | 496 kts | 83° |
| 2026-05-04 19:13 | 38.36092 | -119.91553 | 31207 ft | 498 kts | 83° |
| 2026-05-04 19:13 | 38.36673 | -119.87192 | 31402 ft | 499 kts | 83° |
| 2026-05-04 19:13 | 38.37251 | -119.82824 | 31625 ft | 500 kts | 83° |
| 2026-05-04 19:14 | 38.37826 | -119.78448 | 31842 ft | 500 kts | 83° |
| 2026-05-04 19:14 | 38.38401 | -119.74064 | 32055 ft | 500 kts | 83° |
| 2026-05-04 19:14 | 38.38977 | -119.69682 | 32261 ft | 501 kts | 83° |
| 2026-05-04 19:14 | 38.39546 | -119.65349 | 32482 ft | 501 kts | 83° |